createdAt,value
2019-04-21T00:01:52.208Z,95873.80
2019-04-21T00:04:33.178Z,95873.66
2019-04-21T00:07:13.185Z,95868.90
2019-04-21T00:12:18.116Z,95863.91
2019-04-21T00:14:47.131Z,95859.24
2019-04-21T00:17:11.443Z,95862.58
2019-04-21T00:19:49.548Z,95864.09
2019-04-21T00:22:34.497Z,95852.45
2019-04-21T00:25:11.886Z,95854.61
2019-04-21T00:27:44.255Z,95857.48
2019-04-21T00:30:21.794Z,95849.22
2019-04-21T00:32:46.542Z,95855.69
2019-04-21T00:35:13.173Z,95851.72
2019-04-21T00:38:00.530Z,95845.44
2019-04-21T00:40:34.662Z,95837.34
2019-04-21T00:43:04.965Z,95839.09
2019-04-21T00:45:31.401Z,95830.72
2019-04-21T00:48:10.095Z,95826.58
2019-04-21T00:51:03.522Z,95830.38
2019-04-21T00:53:32.107Z,95824.94
2019-04-21T00:56:05.779Z,95827.46
2019-04-21T00:58:36.024Z,95828.77
2019-04-21T01:01:04.455Z,95823.94
2019-04-21T01:03:37.304Z,95819.98
2019-04-21T01:06:11.035Z,95819.17
2019-04-21T01:08:44.099Z,95823.20
2019-04-21T01:11:15.629Z,95819.98
2019-04-21T01:13:56.781Z,95822.05
2019-04-21T01:16:21.879Z,95824.73
2019-04-21T01:18:49.344Z,95823.17
2019-04-21T01:21:13.582Z,95823.77
2019-04-21T01:23:36.143Z,95823.56
2019-04-21T01:26:24.915Z,95820.47
2019-04-21T01:28:56.493Z,95811.42
2019-04-21T01:31:30.618Z,95813.50
2019-04-21T01:34:08.338Z,95809.52
2019-04-21T01:36:36.597Z,95805.34
2019-04-21T01:39:13.685Z,95795.88
2019-04-21T01:41:44.776Z,95796.75
2019-04-21T01:44:15.886Z,95799.56
2019-04-21T01:46:45.878Z,95794.74
2019-04-21T01:49:11.562Z,95797.93
2019-04-21T01:52:13.565Z,95795.88
2019-04-21T01:54:52.253Z,95799.31
2019-04-21T01:57:25.944Z,95797.96
2019-04-21T01:59:54.935Z,95792.52
2019-04-21T02:02:41.433Z,95788.16
2019-04-21T02:05:11.722Z,95797.07
2019-04-21T02:07:38.993Z,95796.77
2019-04-21T02:10:19.493Z,95789.64
2019-04-21T02:12:45.924Z,95789.97
2019-04-21T02:15:27.596Z,95789.38
2019-04-21T02:17:53.739Z,95784.35
2019-04-21T02:20:19.226Z,95790.30
2019-04-21T02:23:12.786Z,95784.81
2019-04-21T02:25:31.810Z,95786.05
2019-04-21T02:28:03.259Z,95786.20
2019-04-21T02:33:32.296Z,95780.28
2019-04-21T02:36:10.723Z,95773.44
2019-04-21T02:38:34.298Z,95770.82
2019-04-21T02:40:57.264Z,95775.42
2019-04-21T02:43:24.897Z,95767.11
2019-04-21T02:46:09.671Z,95765.55
2019-04-21T02:48:52.828Z,95772.41
2019-04-21T02:51:12.591Z,95766.19
2019-04-21T02:53:53.643Z,95768.79
2019-04-21T02:56:18.065Z,95764.25
2019-04-21T02:59:01.905Z,95766.67
2019-04-21T03:02:04.030Z,95765.69
2019-04-21T03:04:34.825Z,95752.10
2019-04-21T03:12:43.847Z,95752.51
2019-04-21T03:22:31.737Z,95746.96
2019-04-21T03:25:33.626Z,95747.23
2019-04-21T03:27:52.784Z,95738.84
2019-04-21T03:31:02.558Z,95735.12
2019-04-21T03:37:56.134Z,95732.98
2019-04-21T03:40:18.747Z,95732.48
2019-04-21T03:42:57.213Z,95729.07
2019-04-21T03:48:01.301Z,95725.08
2019-04-21T03:50:33.733Z,95725.90
2019-04-21T03:53:16.807Z,95726.00
2019-04-21T03:58:24.023Z,95713.23
2019-04-21T04:04:29.499Z,95720.36
2019-04-21T04:09:52.346Z,95725.45
2019-04-21T04:12:06.022Z,95734.66
2019-04-21T04:14:47.321Z,95733.23
2019-04-21T04:19:44.899Z,95725.34
2019-04-21T04:22:30.953Z,95728.77
2019-04-21T04:25:02.940Z,95730.63
2019-04-21T04:29:59.308Z,95725.80
2019-04-21T04:32:41.933Z,95726.02
2019-04-21T04:35:14.508Z,95729.45
2019-04-21T04:37:36.752Z,95724.97
2019-04-21T04:40:14.222Z,95733.23
2019-04-21T04:43:13.222Z,95729.12
2019-04-21T04:45:55.764Z,95724.87
2019-04-21T04:48:19.394Z,95716.00
2019-04-21T04:53:32.827Z,95718.37
2019-04-21T04:58:29.254Z,95717.09
2019-04-21T05:01:04.736Z,95704.81
2019-04-21T05:03:46.689Z,95701.41
2019-04-21T05:21:50.526Z,95700.30
2019-04-21T05:24:10.833Z,95702.94
2019-04-21T05:26:43.442Z,95697.36
2019-04-21T05:29:10.598Z,95694.18
2019-04-21T05:32:17.181Z,95693.47
2019-04-21T05:35:01.558Z,95693.55
2019-04-21T05:37:56.152Z,95692.38
2019-04-21T05:40:28.682Z,95697.09
2019-04-21T05:43:04.418Z,95702.19
2019-04-21T05:45:40.563Z,95692.31
2019-04-21T05:48:37.829Z,95695.34
2019-04-21T05:51:00.179Z,95693.53
2019-04-21T05:53:39.334Z,95689.20
2019-04-21T05:56:09.981Z,95696.84
2019-04-21T05:58:46.630Z,95684.96
2019-04-21T06:01:23.872Z,95686.00
2019-04-21T06:03:49.195Z,95689.96
2019-04-21T06:06:30.759Z,95680.67
2019-04-21T06:08:53.930Z,95685.28
2019-04-21T06:14:02.646Z,95680.33
2019-04-21T06:16:36.487Z,95679.09
2019-04-21T06:19:05.042Z,95679.39
2019-04-21T06:21:39.286Z,95677.44
2019-04-21T06:24:10.111Z,95681.63
2019-04-21T06:26:59.239Z,95671.41
2019-04-21T06:29:17.649Z,95670.11
2019-04-21T06:32:12.701Z,95673.61
2019-04-21T06:34:24.611Z,95670.15
2019-04-21T06:40:07.622Z,95664.67
2019-04-21T06:42:28.508Z,95664.13
2019-04-21T06:45:05.878Z,95660.51
2019-04-21T06:47:35.075Z,95663.26
2019-04-21T06:50:00.439Z,95662.06
2019-04-21T06:55:13.836Z,95658.39
2019-04-21T06:57:44.414Z,95648.80
2019-04-21T07:00:15.113Z,95643.36
2019-04-21T07:03:02.122Z,95643.07
2019-04-21T07:05:20.512Z,95640.64
2019-04-21T07:08:11.346Z,95640.13
2019-04-21T07:10:26.042Z,95641.66
2019-04-21T07:12:57.570Z,95633.36
2019-04-21T07:15:30.405Z,95617.70
2019-04-21T07:18:04.424Z,95619.22
2019-04-21T07:20:38.385Z,95611.48
2019-04-21T07:23:09.299Z,95607.52
2019-04-21T07:25:45.821Z,95617.87
2019-04-21T07:28:20.947Z,95604.38
2019-04-21T07:30:51.593Z,95612.75
2019-04-21T07:33:41.279Z,95620.91
2019-04-21T07:35:57.860Z,95617.31
2019-04-21T07:38:28.637Z,95606.95
2019-04-21T07:40:54.512Z,95607.12
2019-04-21T07:43:25.966Z,95597.13
2019-04-21T07:45:58.813Z,95597.52
2019-04-21T07:48:49.545Z,95599.63
2019-04-21T07:51:37.778Z,95607.70
2019-04-21T07:54:13.958Z,95608.36
2019-04-21T07:56:24.490Z,95608.42
2019-04-21T07:59:19.339Z,95602.44
2019-04-21T08:01:50.373Z,95595.80
2019-04-21T08:04:38.259Z,95593.91
2019-04-21T08:06:51.900Z,95607.11
2019-04-21T08:09:28.127Z,95602.30
2019-04-21T08:11:54.285Z,95597.30
2019-04-21T08:14:55.751Z,95596.22
2019-04-21T08:17:07.363Z,95592.03
2019-04-21T08:19:37.010Z,95585.98
2019-04-21T08:22:14.026Z,95586.86
2019-04-21T08:24:45.223Z,95592.98
2019-04-21T08:27:17.735Z,95587.09
2019-04-21T08:32:31.666Z,95582.84
2019-04-21T08:35:08.419Z,95577.71
2019-04-21T08:37:27.625Z,95589.16
2019-04-21T08:40:21.450Z,95583.05
2019-04-21T08:42:30.457Z,95579.83
2019-04-21T08:45:09.435Z,95571.56
2019-04-21T08:47:41.402Z,95567.70
2019-04-21T08:50:11.228Z,95564.30
2019-04-21T08:55:33.428Z,95560.86
2019-04-21T08:58:30.907Z,95556.69
2019-04-21T09:01:00.854Z,95551.47
2019-04-21T09:03:54.029Z,95553.87
2019-04-21T09:06:40.391Z,95550.98
2019-04-21T09:08:58.938Z,95549.87
2019-04-21T09:11:22.591Z,95545.15
2019-04-21T09:14:01.344Z,95548.52
2019-04-21T09:16:30.937Z,95539.02
2019-04-21T09:18:58.070Z,95538.42
2019-04-21T09:21:42.397Z,95531.17
2019-04-21T09:24:12.511Z,95533.86
2019-04-21T09:26:43.527Z,95532.84
2019-04-21T09:29:14.032Z,95531.16
2019-04-21T09:31:39.147Z,95533.91
2019-04-21T09:34:08.417Z,95532.41
2019-04-21T09:36:45.970Z,95529.17
2019-04-21T09:39:18.253Z,95528.75
2019-04-21T09:41:51.187Z,95516.23
2019-04-21T09:44:25.407Z,95524.84
2019-04-21T09:46:56.356Z,95522.32
2019-04-21T09:49:30.876Z,95515.94
2019-04-21T09:51:59.847Z,95518.78
2019-04-21T09:54:34.007Z,95522.74
2019-04-21T09:57:08.929Z,95512.75
2019-04-21T09:59:40.317Z,95511.63
2019-04-21T10:02:17.462Z,95502.02
2019-04-21T10:04:42.441Z,95505.88
2019-04-21T10:07:24.648Z,95500.38
2019-04-21T10:09:47.781Z,95497.50
2019-04-21T10:12:20.004Z,95495.36
2019-04-21T10:14:51.837Z,95488.91
2019-04-21T10:17:29.309Z,95487.58
2019-04-21T10:20:00.781Z,95474.33
2019-04-21T10:22:33.008Z,95484.46
2019-04-21T10:25:05.261Z,95465.47
2019-04-21T10:27:36.953Z,95471.38
2019-04-21T10:30:10.404Z,95473.34
2019-04-21T10:32:42.679Z,95475.77
2019-04-21T10:35:15.250Z,95461.95
2019-04-21T10:38:01.423Z,95460.73
2019-04-21T10:40:21.280Z,95461.20
2019-04-21T10:42:54.140Z,95452.42
2019-04-21T10:45:25.424Z,95446.43
2019-04-21T10:47:56.887Z,95450.19
2019-04-21T10:50:28.735Z,95446.64
2019-04-21T10:53:04.839Z,95440.02
2019-04-21T10:55:53.267Z,95435.94
2019-04-21T10:58:11.031Z,95432.17
2019-04-21T11:00:44.054Z,95424.41
2019-04-21T11:03:43.150Z,95432.80
2019-04-21T11:06:17.243Z,95427.05
2019-04-21T11:08:51.041Z,95425.30
2019-04-21T11:11:21.754Z,95414.52
2019-04-21T11:13:52.966Z,95420.03
2019-04-21T11:16:24.054Z,95416.03
2019-04-21T11:18:55.964Z,95409.75
2019-04-21T11:21:27.381Z,95406.37
2019-04-21T11:23:58.520Z,95405.28
2019-04-21T11:26:29.956Z,95405.42
2019-04-21T11:29:01.179Z,95407.37
2019-04-21T11:31:33.429Z,95403.89
2019-04-21T11:34:05.208Z,95403.19
2019-04-21T11:36:37.461Z,95392.17
2019-04-21T11:39:35.248Z,95398.92
2019-04-21T11:41:57.683Z,95397.02
2019-04-21T11:44:29.089Z,95393.67
2019-04-21T11:47:00.609Z,95395.12
2019-04-21T11:49:32.600Z,95387.64
2019-04-21T11:52:04.803Z,95386.45
2019-04-21T11:54:37.074Z,95382.21
2019-04-21T11:57:15.175Z,95377.80
2019-04-21T11:59:41.699Z,95376.60
2019-04-21T12:02:12.873Z,95383.61
2019-04-21T12:04:43.913Z,95380.30
2019-04-21T12:07:15.850Z,95371.83
2019-04-21T12:09:47.912Z,95371.55
2019-04-21T12:12:19.195Z,95370.80
2019-04-21T12:14:50.360Z,95372.48
2019-04-21T12:17:21.330Z,95373.55
2019-04-21T12:19:52.695Z,95356.64
2019-04-21T12:22:28.943Z,95366.39
2019-04-21T12:24:57.526Z,95359.92
2019-04-21T12:27:29.840Z,95350.92
2019-04-21T12:30:02.058Z,95346.34
2019-04-21T12:32:48.459Z,95346.91
2019-04-21T12:35:21.846Z,95348.11
2019-04-21T12:37:53.216Z,95344.65
2019-04-21T12:40:26.405Z,95334.00
2019-04-21T12:42:58.805Z,95333.28
2019-04-21T12:45:31.511Z,95334.14
2019-04-21T12:48:04.254Z,95319.88
2019-04-21T12:50:36.567Z,95335.16
2019-04-21T12:53:07.698Z,95323.98
2019-04-21T12:55:42.765Z,95321.28
2019-04-21T12:58:11.539Z,95318.92
2019-04-21T13:00:42.937Z,95317.78
2019-04-21T13:03:14.302Z,95317.45
2019-04-21T13:05:45.434Z,95319.47
2019-04-21T13:08:17.675Z,95316.06
2019-04-21T13:10:48.830Z,95309.22
2019-04-21T13:13:19.877Z,95307.23
2019-04-21T13:15:51.680Z,95307.91
2019-04-21T13:18:22.856Z,95293.78
2019-04-21T13:20:54.102Z,95293.66
2019-04-21T13:23:25.158Z,95289.51
2019-04-21T13:25:56.214Z,95290.30
2019-04-21T13:28:28.289Z,95279.11
2019-04-21T13:31:00.179Z,95282.84
2019-04-21T13:33:31.327Z,95273.46
2019-04-21T13:36:02.872Z,95268.03
2019-04-21T13:38:42.822Z,95268.31
2019-04-21T13:41:30.896Z,95266.70
2019-04-21T13:43:50.866Z,95258.97
2019-04-21T13:46:22.803Z,95258.41
2019-04-21T13:48:54.805Z,95255.85
2019-04-21T13:51:27.028Z,95251.19
2019-04-21T13:53:58.083Z,95253.77
2019-04-21T13:56:30.205Z,95242.58
2019-04-21T13:59:02.256Z,95234.00
2019-04-21T14:01:34.017Z,95240.77
2019-04-21T14:04:05.625Z,95230.66
2019-04-21T14:06:36.638Z,95231.94
2019-04-21T14:09:10.879Z,95228.58
2019-04-21T14:11:43.715Z,95227.61
2019-04-21T14:14:14.821Z,95212.34
2019-04-21T14:16:45.945Z,95213.81
2019-04-21T14:19:17.277Z,95218.70
2019-04-21T14:21:51.139Z,95213.04
2019-04-21T14:24:20.972Z,95216.36
2019-04-21T14:26:52.259Z,95207.16
2019-04-21T14:29:23.869Z,95210.39
2019-04-21T14:31:56.049Z,95204.85
2019-04-21T14:34:28.127Z,95200.84
2019-04-21T14:36:59.337Z,95200.08
2019-04-21T14:39:30.431Z,95201.88
2019-04-21T14:42:02.274Z,95203.52
2019-04-21T14:44:33.587Z,95197.11
2019-04-21T14:47:15.720Z,95194.17
2019-04-21T14:50:07.093Z,95188.00
2019-04-21T14:52:39.155Z,95189.73
2019-04-21T14:55:22.883Z,95183.16
2019-04-21T14:57:54.918Z,95183.80
2019-04-21T15:00:33.258Z,95186.16
2019-04-21T15:03:05.589Z,95189.68
2019-04-21T15:05:37.629Z,95180.70
2019-04-21T15:08:09.145Z,95181.94
2019-04-21T15:10:40.940Z,95179.87
2019-04-21T15:13:11.988Z,95179.60
2019-04-21T15:15:44.096Z,95174.67
2019-04-21T15:18:16.770Z,95179.23
2019-04-21T15:20:50.046Z,95173.20
2019-04-21T15:23:24.437Z,95170.12
2019-04-21T15:25:54.331Z,95165.05
2019-04-21T15:28:28.387Z,95172.70
2019-04-21T15:30:58.668Z,95167.00
2019-04-21T15:33:30.651Z,95167.49
2019-04-21T15:36:02.941Z,95161.98
2019-04-21T15:38:34.206Z,95159.42
2019-04-21T15:41:10.078Z,95161.22
2019-04-21T15:43:38.565Z,95157.45
2019-04-21T15:46:10.975Z,95153.94
2019-04-21T15:48:42.363Z,95159.90
2019-04-21T15:51:13.630Z,95159.48
2019-04-21T15:53:45.842Z,95150.73
2019-04-21T15:56:22.736Z,95155.70
2019-04-21T15:59:10.534Z,95151.80
2019-04-21T16:02:01.019Z,95143.66
2019-04-21T16:04:32.662Z,95144.14
2019-04-21T16:07:04.071Z,95134.78
2019-04-21T16:09:37.334Z,95143.16
2019-04-21T16:12:07.879Z,95139.69
2019-04-21T16:14:38.870Z,95138.65
2019-04-21T16:17:11.651Z,95131.37
2019-04-21T16:19:43.826Z,95136.65
2019-04-21T16:22:14.929Z,95130.20
2019-04-21T16:24:47.716Z,95132.51
2019-04-21T16:27:19.771Z,95133.47
2019-04-21T16:29:52.156Z,95131.37
2019-04-21T16:32:24.035Z,95128.65
2019-04-21T16:35:01.527Z,95127.20
2019-04-21T16:37:27.877Z,95126.99
2019-04-21T16:39:59.138Z,95127.29
2019-04-21T16:42:30.324Z,95125.77
2019-04-21T16:45:01.317Z,95125.67
2019-04-21T16:47:32.511Z,95122.28
2019-04-21T16:50:03.752Z,95124.59
2019-04-21T16:52:49.915Z,95122.49
2019-04-21T16:55:37.068Z,95114.55
2019-04-21T16:58:45.358Z,95108.11
2019-04-21T17:01:24.272Z,95113.91
2019-04-21T17:03:55.325Z,95121.97
2019-04-21T17:06:27.045Z,95118.06
2019-04-21T17:08:58.965Z,95111.69
2019-04-21T17:11:33.643Z,95115.25
2019-04-21T17:14:03.541Z,95109.55
2019-04-21T17:17:16.167Z,95116.16
2019-04-21T17:19:15.909Z,95119.52
2019-04-21T17:21:41.656Z,95116.16
2019-04-21T17:24:14.453Z,95114.45
2019-04-21T17:26:46.496Z,95115.00
2019-04-21T17:29:18.793Z,95115.03
2019-04-21T17:31:49.928Z,95111.98
2019-04-21T17:34:24.932Z,95118.28
2019-04-21T17:36:55.057Z,95117.39
2019-04-21T17:39:26.989Z,95120.26
2019-04-21T17:42:11.713Z,95123.14
2019-04-21T17:44:30.928Z,95115.58
2019-04-21T17:47:05.666Z,95115.77
2019-04-21T17:49:34.930Z,95116.48
2019-04-21T17:52:18.164Z,95118.38
2019-04-21T17:55:07.584Z,95126.19
2019-04-21T17:57:48.490Z,95119.92
2019-04-21T18:00:43.296Z,95116.54
2019-04-21T18:03:00.500Z,95118.59
2019-04-21T18:05:31.961Z,95124.52
2019-04-21T18:08:02.087Z,95124.27
2019-04-21T18:10:34.871Z,95127.38
2019-04-21T18:13:01.365Z,95132.20
2019-04-21T18:15:42.409Z,95129.54
2019-04-21T18:17:58.755Z,95130.70
2019-04-21T18:20:32.518Z,95131.66
2019-04-21T18:23:38.231Z,95129.09
2019-04-21T18:26:01.978Z,95128.42
2019-04-21T18:28:26.510Z,95124.86
2019-04-21T18:31:04.559Z,95137.20
2019-04-21T18:33:40.898Z,95137.98
2019-04-21T18:36:25.019Z,95136.81
2019-04-21T18:39:33.657Z,95136.89
2019-04-21T18:42:15.293Z,95143.41
2019-04-21T18:45:38.743Z,95140.55
2019-04-21T18:47:59.485Z,95139.05
2019-04-21T18:51:02.625Z,95145.37
2019-04-21T18:53:46.583Z,95144.88
2019-04-21T18:56:08.310Z,95157.38
2019-04-21T18:58:38.262Z,95150.73
2019-04-21T19:01:14.895Z,95152.58
2019-04-21T19:03:47.085Z,95154.85
2019-04-21T19:06:20.560Z,95149.12
2019-04-21T19:09:21.662Z,95152.48
2019-04-21T19:11:34.673Z,95144.09
2019-04-21T19:14:26.015Z,95150.84
2019-04-21T19:21:55.237Z,95150.75
2019-04-21T19:24:29.101Z,95149.69
2019-04-21T19:32:08.794Z,95144.14
2019-04-21T19:34:24.509Z,95146.34
2019-04-21T19:37:00.712Z,95143.50
2019-04-21T19:39:39.238Z,95147.76
2019-04-21T19:42:08.630Z,95145.16
2019-04-21T19:44:47.094Z,95151.16
2019-04-21T19:47:28.364Z,95143.81
2019-04-21T19:49:58.760Z,95144.85
2019-04-21T19:52:23.656Z,95140.00
2019-04-21T19:54:46.753Z,95140.31
2019-04-21T19:57:16.716Z,95135.47
2019-04-21T19:59:51.847Z,95132.43
2019-04-21T20:02:20.525Z,95137.08
2019-04-21T20:04:59.628Z,95138.05
2019-04-21T20:07:41.559Z,95140.01
2019-04-21T20:10:21.297Z,95137.45
2019-04-21T20:12:48.710Z,95140.36
2019-04-21T20:17:52.994Z,95138.63
2019-04-21T20:20:11.206Z,95139.64
2019-04-21T20:22:46.821Z,95136.80
2019-04-21T20:25:19.169Z,95138.63
2019-04-21T20:27:55.459Z,95134.09
2019-04-21T20:30:40.840Z,95125.72
2019-04-21T20:33:35.271Z,95134.48
2019-04-21T20:35:51.993Z,95131.64
2019-04-21T20:38:12.596Z,95131.84
2019-04-21T20:40:42.791Z,95133.78
2019-04-21T20:43:28.571Z,95139.00
2019-04-21T20:46:00.585Z,95127.12
2019-04-21T20:48:25.257Z,95124.91
2019-04-21T20:51:05.109Z,95123.67
2019-04-21T20:53:31.309Z,95126.94
2019-04-21T20:56:02.331Z,95123.30
2019-04-21T20:58:40.799Z,95122.11
2019-04-21T21:01:25.700Z,95119.73
2019-04-21T21:03:43.215Z,95120.16
2019-04-21T21:06:18.742Z,95116.44
2019-04-21T21:08:50.192Z,95114.67
2019-04-21T21:11:24.389Z,95107.91
2019-04-21T21:13:58.733Z,95112.53
2019-04-21T21:16:36.858Z,95112.28
2019-04-21T21:19:10.604Z,95112.48
2019-04-21T21:21:38.776Z,95116.37
2019-04-21T21:24:08.744Z,95115.17
2019-04-21T21:26:44.112Z,95121.19
2019-04-21T21:29:06.749Z,95114.73
2019-04-21T21:31:49.077Z,95116.92
2019-04-21T21:34:20.899Z,95107.20
2019-04-21T21:36:57.608Z,95109.02
2019-04-21T21:39:21.343Z,95104.06
2019-04-21T21:41:49.775Z,95097.50
2019-04-21T21:44:19.741Z,95097.56
2019-04-21T21:47:04.388Z,95085.50
2019-04-21T21:49:35.479Z,95085.78
2019-04-21T21:52:04.482Z,95080.98
2019-04-21T21:54:27.632Z,95081.31
2019-04-21T21:56:58.896Z,95073.66
2019-04-21T21:59:32.980Z,95081.70
2019-04-21T22:02:09.545Z,95078.77
2019-04-21T22:04:50.910Z,95072.17
2019-04-21T22:07:17.126Z,95069.44
2019-04-21T22:09:46.217Z,95061.17
2019-04-21T22:12:18.178Z,95064.55
2019-04-21T22:14:52.451Z,95063.37
2019-04-21T22:17:36.886Z,95066.83
2019-04-21T22:20:16.702Z,95061.58
2019-04-21T22:22:41.921Z,95058.30
2019-04-21T22:25:10.121Z,95052.61
2019-04-21T22:27:32.921Z,95055.54
2019-04-21T22:30:07.807Z,95051.55
2019-04-21T22:32:38.243Z,95046.71
2019-04-21T22:35:22.059Z,95052.94
2019-04-21T22:37:54.814Z,95052.11
2019-04-21T22:40:29.095Z,95056.17
2019-04-21T22:43:04.454Z,95058.78
2019-04-21T22:45:24.889Z,95058.35
2019-04-21T22:48:05.318Z,95058.98
2019-04-21T22:50:32.909Z,95065.20
2019-04-21T22:53:07.765Z,95059.48
2019-04-21T22:55:37.205Z,95065.04
2019-04-21T22:58:09.599Z,95069.55
2019-04-21T23:00:46.046Z,95063.06
2019-04-21T23:03:21.322Z,95064.22
2019-04-21T23:05:50.353Z,95068.13
2019-04-21T23:08:26.587Z,95061.08
2019-04-21T23:11:00.884Z,95061.21
2019-04-21T23:13:28.566Z,95061.64
2019-04-21T23:16:01.463Z,95057.32
2019-04-21T23:18:46.115Z,95047.83
2019-04-21T23:21:17.395Z,95050.62
2019-04-21T23:23:57.945Z,95050.92
2019-04-21T23:26:35.914Z,95047.88
2019-04-21T23:29:01.903Z,95045.72
2019-04-21T23:31:37.171Z,95047.33
2019-04-21T23:33:50.377Z,95040.45
2019-04-21T23:36:26.299Z,95035.12
2019-04-21T23:38:56.682Z,95038.31
2019-04-21T23:41:33.484Z,95035.92
2019-04-21T23:44:05.893Z,95037.88
2019-04-21T23:46:35.264Z,95032.86
2019-04-21T23:49:18.547Z,95033.22
2019-04-21T23:51:47.022Z,95027.64
2019-04-21T23:54:11.387Z,95027.08
2019-04-21T23:56:45.635Z,95027.95
2019-04-21T23:59:17.811Z,95026.50
